createdAt,value
2023-03-27T06:20:19.189Z,1006.61
2023-03-27T06:30:19.196Z,1006.72
2023-03-27T06:40:19.261Z,1006.79
2023-03-27T06:50:19.328Z,1006.90
2023-03-27T07:00:19.117Z,1007.00
2023-03-27T07:10:19.140Z,1007.25
2023-03-27T07:20:19.316Z,1007.23
2023-03-27T07:30:19.498Z,1007.51
2023-03-27T07:40:23.828Z,1007.45
2023-03-27T07:50:19.582Z,1007.47
2023-03-27T08:00:19.574Z,1007.58
2023-03-27T08:10:19.639Z,1007.53
2023-03-27T08:20:19.709Z,1007.65
2023-03-27T08:30:19.861Z,1007.71
2023-03-27T08:40:19.725Z,1007.71
2023-03-27T08:50:19.931Z,1007.83
2023-03-27T09:00:19.912Z,1007.70
2023-03-27T09:10:20.025Z,1007.80
2023-03-27T09:20:20.206Z,1007.80
2023-03-27T09:30:20.482Z,1007.80
2023-03-27T09:40:20.356Z,1007.77
2023-03-27T09:50:20.404Z,1008.45
2023-03-27T10:00:20.454Z,1008.62
2023-03-27T10:10:20.427Z,1008.76
2023-03-27T10:20:20.487Z,1008.55
2023-03-27T10:30:20.461Z,1008.49
2023-03-27T10:40:20.327Z,1008.60
2023-03-27T10:50:20.315Z,1008.56
2023-03-27T11:00:20.551Z,1008.70
2023-03-27T11:10:20.412Z,1009.41
2023-03-27T11:20:20.578Z,1009.30
2023-03-27T11:30:20.422Z,1009.19
2023-03-27T11:40:20.230Z,1009.05
2023-03-27T11:50:20.351Z,1008.96
2023-03-27T12:00:20.417Z,1009.05
2023-03-27T12:10:25.385Z,1008.87
2023-03-27T12:20:20.659Z,1008.73
2023-03-27T12:30:20.508Z,1008.79
2023-03-27T12:40:20.691Z,1008.88
2023-03-27T12:50:20.689Z,1010.04
2023-03-27T13:00:20.501Z,1009.94
2023-03-27T13:10:20.570Z,1010.15
2023-03-27T13:20:20.653Z,1009.92
2023-03-27T13:30:21.962Z,1009.74
2023-03-27T13:40:20.495Z,1009.46
2023-03-27T13:50:20.837Z,1009.46
2023-03-27T14:00:20.491Z,1009.56
2023-03-27T14:10:20.560Z,1009.80
2023-03-27T14:20:20.739Z,1009.75
2023-03-27T14:30:20.691Z,1009.79
2023-03-27T14:40:20.659Z,1009.89
2023-03-27T14:50:20.624Z,1009.81
2023-03-27T15:00:20.630Z,1010.02
2023-03-27T15:10:20.704Z,1010.53
2023-03-27T15:20:20.774Z,1010.47
2023-03-27T15:30:20.561Z,1010.49
2023-03-27T15:40:20.522Z,1010.35
2023-03-27T15:50:20.522Z,1010.19
2023-03-27T16:00:20.450Z,1010.45
2023-03-27T16:10:20.619Z,1010.55
2023-03-27T16:20:20.578Z,1010.48
2023-03-27T16:30:20.542Z,1010.47
2023-03-27T16:40:20.412Z,1010.35
2023-03-27T16:50:20.572Z,1010.42
2023-03-27T17:00:20.850Z,1010.47
2023-03-27T17:10:20.819Z,1010.64
2023-03-27T17:20:20.769Z,1010.77
2023-03-27T17:30:34.601Z,1011.02
2023-03-27T17:40:20.690Z,1011.29
2023-03-27T17:50:20.765Z,1011.27
2023-03-27T18:00:20.652Z,1011.29
2023-03-27T18:10:20.894Z,1011.47
2023-03-27T18:20:20.753Z,1012.15
2023-03-27T18:30:20.706Z,1012.30
2023-03-27T18:40:20.994Z,1012.37
2023-03-27T18:50:21.050Z,1012.39
2023-03-27T19:00:21.334Z,1012.31
2023-03-27T19:10:21.279Z,1012.26
2023-03-27T19:20:21.644Z,1012.29
